sensor_id;sensor_type;location;lat;lon;timestamp;pressure;altitude;pressure_sealevel;temperature;humidity
59829;BME280;45708;51.848;107.620;2023-03-13T00:00:59;93885.59;;;-7.36;59.50
59829;BME280;45708;51.848;107.620;2023-03-13T00:06:00;93840.44;;;-7.19;58.43
59829;BME280;45708;51.848;107.620;2023-03-13T00:11:02;93903.34;;;-6.42;57.64
59829;BME280;45708;51.848;107.620;2023-03-13T00:16:06;93885.38;;;-6.06;57.18
59829;BME280;45708;51.848;107.620;2023-03-13T00:21:08;93817.09;;;-6.27;56.41
59829;BME280;45708;51.848;107.620;2023-03-13T00:26:11;93862.75;;;-5.77;54.98
59829;BME280;45708;51.848;107.620;2023-03-13T00:31:15;93884.69;;;-5.91;56.83
59829;BME280;45708;51.848;107.620;2023-03-13T00:36:21;93893.59;;;-5.59;56.94
59829;BME280;45708;51.848;107.620;2023-03-13T00:41:30;93885.16;;;-4.17;54.07
59829;BME280;45708;51.848;107.620;2023-03-13T00:46:31;93855.94;;;-4.58;52.14
59829;BME280;45708;51.848;107.620;2023-03-13T00:51:33;93886.06;;;-4.93;53.79
59829;BME280;45708;51.848;107.620;2023-03-13T00:56:33;93904.50;;;-4.79;53.95
59829;BME280;45708;51.848;107.620;2023-03-13T01:01:35;93878.47;;;-4.60;53.65
59829;BME280;45708;51.848;107.620;2023-03-13T01:06:38;93824.56;;;-4.96;53.01
59829;BME280;45708;51.848;107.620;2023-03-13T01:11:41;93912.50;;;-4.82;52.92
59829;BME280;45708;51.848;107.620;2023-03-13T01:16:42;93941.94;;;-5.19;53.31
59829;BME280;45708;51.848;107.620;2023-03-13T01:21:44;93973.97;;;-5.39;53.57
59829;BME280;45708;51.848;107.620;2023-03-13T01:26:45;94023.25;;;-5.52;54.34
59829;BME280;45708;51.848;107.620;2023-03-13T01:31:46;94040.78;;;-5.83;54.88
59829;BME280;45708;51.848;107.620;2023-03-13T01:36:47;94041.91;;;-6.31;55.71
59829;BME280;45708;51.848;107.620;2023-03-13T01:41:48;93996.72;;;-6.88;57.71
59829;BME280;45708;51.848;107.620;2023-03-13T01:46:49;94066.28;;;-6.72;59.29
59829;BME280;45708;51.848;107.620;2023-03-13T01:51:54;94013.06;;;-6.80;61.60
59829;BME280;45708;51.848;107.620;2023-03-13T02:02:03;94080.03;;;-5.81;64.20
59829;BME280;45708;51.848;107.620;2023-03-13T02:07:09;94068.00;;;-5.63;65.13
59829;BME280;45708;51.848;107.620;2023-03-13T02:12:15;94070.66;;;-5.55;66.77
59829;BME280;45708;51.848;107.620;2023-03-13T02:17:18;94086.69;;;-5.25;68.58
59829;BME280;45708;51.848;107.620;2023-03-13T02:27:32;94101.78;;;-4.69;69.78
59829;BME280;45708;51.848;107.620;2023-03-13T02:32:33;94117.19;;;-4.51;69.31
59829;BME280;45708;51.848;107.620;2023-03-13T02:37:34;94111.22;;;-4.77;69.38
59829;BME280;45708;51.848;107.620;2023-03-13T02:42:41;94077.97;;;-4.88;69.36
59829;BME280;45708;51.848;107.620;2023-03-13T02:47:43;94136.25;;;-4.44;69.62
59829;BME280;45708;51.848;107.620;2023-03-13T02:52:54;94059.63;;;-4.85;69.92
59829;BME280;45708;51.848;107.620;2023-03-13T02:57:59;94081.69;;;-5.09;70.19
59829;BME280;45708;51.848;107.620;2023-03-13T03:03:00;94079.34;;;-5.20;69.68
59829;BME280;45708;51.848;107.620;2023-03-13T03:08:01;94176.44;;;-4.59;70.19
59829;BME280;45708;51.848;107.620;2023-03-13T03:13:02;94196.09;;;-4.58;70.03
59829;BME280;45708;51.848;107.620;2023-03-13T03:18:03;94196.75;;;-4.56;69.63
59829;BME280;45708;51.848;107.620;2023-03-13T03:23:04;94146.16;;;-4.57;69.04
59829;BME280;45708;51.848;107.620;2023-03-13T03:28:05;94160.78;;;-4.40;69.31
59829;BME280;45708;51.848;107.620;2023-03-13T03:33:06;94171.91;;;-4.13;68.51
59829;BME280;45708;51.848;107.620;2023-03-13T03:38:07;94192.59;;;-3.37;67.18
59829;BME280;45708;51.848;107.620;2023-03-13T03:43:08;94231.22;;;-2.53;66.58
59829;BME280;45708;51.848;107.620;2023-03-13T03:48:09;94147.00;;;-2.96;64.71
59829;BME280;45708;51.848;107.620;2023-03-13T03:53:10;94261.97;;;-2.17;64.70
59829;BME280;45708;51.848;107.620;2023-03-13T03:58:11;94158.47;;;-2.82;64.40
59829;BME280;45708;51.848;107.620;2023-03-13T04:03:13;94148.28;;;-2.43;63.04
59829;BME280;45708;51.848;107.620;2023-03-13T04:08:14;94267.50;;;-1.32;62.92
59829;BME280;45708;51.848;107.620;2023-03-13T04:13:15;94224.91;;;-1.30;61.29
59829;BME280;45708;51.848;107.620;2023-03-13T04:18:16;94279.81;;;-0.87;60.68
59829;BME280;45708;51.848;107.620;2023-03-13T04:23:17;94240.97;;;-1.03;60.09
59829;BME280;45708;51.848;107.620;2023-03-13T04:28:18;94204.69;;;-1.03;59.88
59829;BME280;45708;51.848;107.620;2023-03-13T04:33:19;94111.28;;;-0.87;58.88
59829;BME280;45708;51.848;107.620;2023-03-13T04:38:20;94228.03;;;0.49;56.91
59829;BME280;45708;51.848;107.620;2023-03-13T04:43:21;94186.44;;;0.19;56.49
59829;BME280;45708;51.848;107.620;2023-03-13T04:48:22;94211.66;;;0.63;56.06
59829;BME280;45708;51.848;107.620;2023-03-13T04:53:23;94178.28;;;0.08;56.57
59829;BME280;45708;51.848;107.620;2023-03-13T04:58:24;94231.25;;;-0.02;57.41
59829;BME280;45708;51.848;107.620;2023-03-13T05:03:25;94272.97;;;-0.26;57.84
59829;BME280;45708;51.848;107.620;2023-03-13T05:08:28;94212.81;;;-1.06;58.19
59829;BME280;45708;51.848;107.620;2023-03-13T05:13:30;94224.50;;;-1.10;59.69
59829;BME280;45708;51.848;107.620;2023-03-13T05:18:30;94284.31;;;-0.81;59.59
59829;BME280;45708;51.848;107.620;2023-03-13T05:23:32;94281.97;;;-1.07;60.20
59829;BME280;45708;51.848;107.620;2023-03-13T05:28:32;94230.75;;;-1.36;60.08
59829;BME280;45708;51.848;107.620;2023-03-13T05:33:33;94248.41;;;-0.92;59.19
59829;BME280;45708;51.848;107.620;2023-03-13T05:38:34;94208.53;;;-0.91;59.17
59829;BME280;45708;51.848;107.620;2023-03-13T05:43:35;94224.19;;;-0.76;59.70
59829;BME280;45708;51.848;107.620;2023-03-13T05:48:36;94281.41;;;-0.78;59.11
59829;BME280;45708;51.848;107.620;2023-03-13T05:53:37;94299.31;;;-0.99;60.51
59829;BME280;45708;51.848;107.620;2023-03-13T05:58:38;94280.78;;;-0.88;61.60
59829;BME280;45708;51.848;107.620;2023-03-13T06:03:39;94292.69;;;-0.71;61.36
59829;BME280;45708;51.848;107.620;2023-03-13T06:08:40;94208.34;;;-0.89;60.15
59829;BME280;45708;51.848;107.620;2023-03-13T06:13:41;94276.53;;;-0.81;61.28
59829;BME280;45708;51.848;107.620;2023-03-13T06:18:42;94280.97;;;-0.58;60.88
59829;BME280;45708;51.848;107.620;2023-03-13T06:23:43;94227.09;;;-1.10;61.17
59829;BME280;45708;51.848;107.620;2023-03-13T06:28:44;94291.84;;;-0.32;60.89
59829;BME280;45708;51.848;107.620;2023-03-13T06:33:45;94236.91;;;-0.67;60.54
59829;BME280;45708;51.848;107.620;2023-03-13T06:38:48;94254.44;;;-0.69;60.69
59829;BME280;45708;51.848;107.620;2023-03-13T06:43:49;94253.59;;;-0.92;59.87
59829;BME280;45708;51.848;107.620;2023-03-13T06:48:50;94341.50;;;-0.82;60.42
59829;BME280;45708;51.848;107.620;2023-03-13T06:53:51;94365.09;;;-0.61;61.08
59829;BME280;45708;51.848;107.620;2023-03-13T06:58:52;94381.22;;;-0.74;61.44
59829;BME280;45708;51.848;107.620;2023-03-13T07:03:53;94389.75;;;-1.29;62.19
59829;BME280;45708;51.848;107.620;2023-03-13T07:08:54;94385.84;;;-1.41;62.66
59829;BME280;45708;51.848;107.620;2023-03-13T07:13:55;94309.50;;;-1.94;62.60
59829;BME280;45708;51.848;107.620;2023-03-13T07:19:00;94417.59;;;-1.31;62.84
59829;BME280;45708;51.848;107.620;2023-03-13T07:24:01;94382.63;;;-1.67;63.69
59829;BME280;45708;51.848;107.620;2023-03-13T07:29:04;94358.34;;;-1.99;63.95
59829;BME280;45708;51.848;107.620;2023-03-13T07:34:05;94407.56;;;-1.66;64.23
59829;BME280;45708;51.848;107.620;2023-03-13T07:39:07;94358.34;;;-2.15;64.12
59829;BME280;45708;51.848;107.620;2023-03-13T07:44:08;94424.34;;;-1.87;65.25
59829;BME280;45708;51.848;107.620;2023-03-13T07:49:08;94339.53;;;-2.33;65.44
59829;BME280;45708;51.848;107.620;2023-03-13T07:54:09;94361.69;;;-2.39;65.41
59829;BME280;45708;51.848;107.620;2023-03-13T07:59:10;94449.59;;;-1.97;65.48
59829;BME280;45708;51.848;107.620;2023-03-13T08:04:12;94400.59;;;-2.40;64.98
59829;BME280;45708;51.848;107.620;2023-03-13T08:09:15;94462.34;;;-2.03;65.20
59829;BME280;45708;51.848;107.620;2023-03-13T08:14:15;94370.78;;;-2.69;65.73
59829;BME280;45708;51.848;107.620;2023-03-13T08:19:17;94429.09;;;-2.32;64.28
59829;BME280;45708;51.848;107.620;2023-03-13T08:24:27;94496.13;;;-2.13;64.15
59829;BME280;45708;51.848;107.620;2023-03-13T08:29:31;94456.03;;;-2.43;63.13
59829;BME280;45708;51.848;107.620;2023-03-13T08:34:32;94520.88;;;-2.10;63.03
59829;BME280;45708;51.848;107.620;2023-03-13T08:39:33;94398.38;;;-3.03;62.13
59829;BME280;45708;51.848;107.620;2023-03-13T08:44:34;94537.09;;;-2.34;62.17
59829;BME280;45708;51.848;107.620;2023-03-13T08:49:36;94556.81;;;-2.33;61.95
59829;BME280;45708;51.848;107.620;2023-03-13T08:54:36;94512.91;;;-2.51;59.84
59829;BME280;45708;51.848;107.620;2023-03-13T08:59:38;94490.81;;;-2.97;59.97
59829;BME280;45708;51.848;107.620;2023-03-13T09:04:38;94545.94;;;-2.63;60.88
59829;BME280;45708;51.848;107.620;2023-03-13T09:09:39;94569.00;;;-2.52;59.35
59829;BME280;45708;51.848;107.620;2023-03-13T09:14:40;94523.19;;;-2.85;59.48
59829;BME280;45708;51.848;107.620;2023-03-13T09:19:41;94506.91;;;-3.03;58.53
59829;BME280;45708;51.848;107.620;2023-03-13T09:24:42;94616.41;;;-2.61;59.44
59829;BME280;45708;51.848;107.620;2023-03-13T09:29:43;94617.84;;;-2.66;59.69
59829;BME280;45708;51.848;107.620;2023-03-13T09:34:44;94585.16;;;-2.76;59.47
59829;BME280;45708;51.848;107.620;2023-03-13T09:39:45;94639.03;;;-2.63;59.47
59829;BME280;45708;51.848;107.620;2023-03-13T09:44:51;94562.38;;;-3.16;59.09
59829;BME280;45708;51.848;107.620;2023-03-13T09:50:01;94595.00;;;-2.97;58.73
59829;BME280;45708;51.848;107.620;2023-03-13T09:55:20;94559.19;;;-3.45;59.31
59829;BME280;45708;51.848;107.620;2023-03-13T10:05:29;94649.16;;;-3.05;57.99
59829;BME280;45708;51.848;107.620;2023-03-13T10:10:42;94686.41;;;-2.80;57.86
59829;BME280;45708;51.848;107.620;2023-03-13T10:15:55;94613.66;;;-3.39;58.46
59829;BME280;45708;51.848;107.620;2023-03-13T10:20:59;94593.81;;;-3.65;57.72
59829;BME280;45708;51.848;107.620;2023-03-13T10:26:01;94716.75;;;-3.00;58.10
59829;BME280;45708;51.848;107.620;2023-03-13T10:31:24;94688.47;;;-3.29;57.84
59829;BME280;45708;51.848;107.620;2023-03-13T10:36:45;94745.19;;;-3.10;57.81
59829;BME280;45708;51.848;107.620;2023-03-13T10:41:47;94674.75;;;-3.57;56.39
59829;BME280;45708;51.848;107.620;2023-03-13T10:46:49;94755.53;;;-3.37;56.42
59829;BME280;45708;51.848;107.620;2023-03-13T10:51:52;94763.34;;;-3.56;56.74
59829;BME280;45708;51.848;107.620;2023-03-13T11:02:33;94784.69;;;-3.54;54.26
59829;BME280;45708;51.848;107.620;2023-03-13T11:07:35;94715.69;;;-4.18;54.28
59829;BME280;45708;51.848;107.620;2023-03-13T11:12:43;94795.47;;;-3.78;54.23
59829;BME280;45708;51.848;107.620;2023-03-13T11:18:14;94826.84;;;-3.83;55.16
59829;BME280;45708;51.848;107.620;2023-03-13T11:23:31;94767.69;;;-4.13;54.50
59829;BME280;45708;51.848;107.620;2023-03-13T11:28:44;94855.75;;;-3.70;53.58
59829;BME280;45708;51.848;107.620;2023-03-13T11:39:40;94875.31;;;-3.86;52.64
59829;BME280;45708;51.848;107.620;2023-03-13T11:45:07;94866.25;;;-4.19;52.95
59829;BME280;45708;51.848;107.620;2023-03-13T12:00:59;94892.91;;;-4.49;54.45
59829;BME280;45708;51.848;107.620;2023-03-13T12:06:02;94789.50;;;-5.25;54.03
59829;BME280;45708;51.848;107.620;2023-03-13T12:11:27;94920.88;;;-4.45;54.92
59829;BME280;45708;51.848;107.620;2023-03-13T12:16:53;94867.81;;;-4.97;54.19
59829;BME280;45708;51.848;107.620;2023-03-13T12:22:08;94918.09;;;-4.72;53.25
59829;BME280;45708;51.848;107.620;2023-03-13T12:32:49;94981.28;;;-4.68;52.62
59829;BME280;45708;51.848;107.620;2023-03-13T12:38:16;94974.09;;;-4.74;52.12
59829;BME280;45708;51.848;107.620;2023-03-13T12:43:37;94961.28;;;-4.85;51.37
59829;BME280;45708;51.848;107.620;2023-03-13T12:54:06;94991.94;;;-5.03;51.81
59829;BME280;45708;51.848;107.620;2023-03-13T12:59:21;94977.31;;;-5.03;50.29
59829;BME280;45708;51.848;107.620;2023-03-13T13:04:30;94963.59;;;-5.34;51.27
59829;BME280;45708;51.848;107.620;2023-03-13T13:09:35;95024.44;;;-5.12;51.13
59829;BME280;45708;51.848;107.620;2023-03-13T13:20:43;94986.63;;;-5.32;50.49
59829;BME280;45708;51.848;107.620;2023-03-13T13:25:44;95043.72;;;-5.06;49.11
59829;BME280;45708;51.848;107.620;2023-03-13T13:30:55;95042.34;;;-5.10;47.90
59829;BME280;45708;51.848;107.620;2023-03-13T13:46:24;95040.63;;;-5.85;47.51
59829;BME280;45708;51.848;107.620;2023-03-13T13:51:27;95037.66;;;-6.13;48.06
59829;BME280;45708;51.848;107.620;2023-03-13T14:01:29;95071.44;;;-5.95;48.75
59829;BME280;45708;51.848;107.620;2023-03-13T14:06:34;95091.44;;;-5.98;49.56
59829;BME280;45708;51.848;107.620;2023-03-13T14:11:37;95076.25;;;-6.35;51.65
59829;BME280;45708;51.848;107.620;2023-03-13T14:16:39;95056.81;;;-6.61;52.38
59829;BME280;45708;51.848;107.620;2023-03-13T14:21:43;95122.72;;;-6.49;53.58
59829;BME280;45708;51.848;107.620;2023-03-13T14:26:44;95113.09;;;-6.81;53.92
59829;BME280;45708;51.848;107.620;2023-03-13T14:31:55;95041.88;;;-7.36;54.59
59829;BME280;45708;51.848;107.620;2023-03-13T14:36:58;95100.56;;;-6.96;53.74
59829;BME280;45708;51.848;107.620;2023-03-13T14:42:13;95076.13;;;-7.13;55.17
59829;BME280;45708;51.848;107.620;2023-03-13T14:52:22;95148.59;;;-6.75;55.92
59829;BME280;45708;51.848;107.620;2023-03-13T14:57:24;95046.59;;;-7.54;55.64
59829;BME280;45708;51.848;107.620;2023-03-13T15:02:28;95171.44;;;-6.83;56.07
59829;BME280;45708;51.848;107.620;2023-03-13T15:07:41;95158.81;;;-6.97;54.65
59829;BME280;45708;51.848;107.620;2023-03-13T15:12:43;95188.06;;;-7.23;55.54
59829;BME280;45708;51.848;107.620;2023-03-13T15:17:44;95112.94;;;-7.73;54.33
59829;BME280;45708;51.848;107.620;2023-03-13T15:22:45;95112.50;;;-7.67;53.50
59829;BME280;45708;51.848;107.620;2023-03-13T15:27:47;95083.59;;;-8.06;53.31
59829;BME280;45708;51.848;107.620;2023-03-13T15:32:48;95119.94;;;-7.75;52.26
59829;BME280;45708;51.848;107.620;2023-03-13T15:37:50;95190.72;;;-7.49;51.73
59829;BME280;45708;51.848;107.620;2023-03-13T15:42:51;95121.22;;;-8.06;51.96
59829;BME280;45708;51.848;107.620;2023-03-13T15:47:53;95148.19;;;-8.01;51.41
59829;BME280;45708;51.848;107.620;2023-03-13T15:52:54;95223.94;;;-7.84;51.73
59829;BME280;45708;51.848;107.620;2023-03-13T15:57:55;95227.41;;;-7.85;52.06
59829;BME280;45708;51.848;107.620;2023-03-13T16:02:56;95180.53;;;-8.36;51.32
59829;BME280;45708;51.848;107.620;2023-03-13T16:07:56;95207.13;;;-8.26;50.79
59829;BME280;45708;51.848;107.620;2023-03-13T16:12:57;95247.13;;;-8.11;51.84
59829;BME280;45708;51.848;107.620;2023-03-13T16:17:58;95248.13;;;-8.26;51.88
59829;BME280;45708;51.848;107.620;2023-03-13T16:23:00;95264.16;;;-7.97;50.98
59829;BME280;45708;51.848;107.620;2023-03-13T16:28:01;95162.28;;;-8.70;50.17
59829;BME280;45708;51.848;107.620;2023-03-13T16:33:02;95243.41;;;-8.32;50.70
59829;BME280;45708;51.848;107.620;2023-03-13T16:38:03;95243.72;;;-8.24;50.63
59829;BME280;45708;51.848;107.620;2023-03-13T16:43:04;95202.78;;;-8.89;50.77
59829;BME280;45708;51.848;107.620;2023-03-13T16:48:05;95246.66;;;-8.68;51.75
59829;BME280;45708;51.848;107.620;2023-03-13T16:53:05;95291.16;;;-8.56;51.50
59829;BME280;45708;51.848;107.620;2023-03-13T16:58:09;95304.75;;;-8.69;52.24
59829;BME280;45708;51.848;107.620;2023-03-13T17:03:12;95289.25;;;-8.80;51.96
59829;BME280;45708;51.848;107.620;2023-03-13T17:08:13;95295.00;;;-8.64;52.47
59829;BME280;45708;51.848;107.620;2023-03-13T17:13:14;95206.44;;;-9.33;52.87
59829;BME280;45708;51.848;107.620;2023-03-13T17:18:15;95238.34;;;-9.11;52.23
59829;BME280;45708;51.848;107.620;2023-03-13T17:23:16;95304.25;;;-8.61;52.19
59829;BME280;45708;51.848;107.620;2023-03-13T17:28:16;95306.06;;;-8.76;52.93
59829;BME280;45708;51.848;107.620;2023-03-13T17:33:17;95196.44;;;-9.50;53.01
59829;BME280;45708;51.848;107.620;2023-03-13T17:38:18;95239.88;;;-9.36;52.58
59829;BME280;45708;51.848;107.620;2023-03-13T17:43:19;95292.06;;;-9.11;53.05
59829;BME280;45708;51.848;107.620;2023-03-13T17:48:20;95245.94;;;-9.65;53.68
59829;BME280;45708;51.848;107.620;2023-03-13T17:53:21;95262.56;;;-9.72;53.57
59829;BME280;45708;51.848;107.620;2023-03-13T17:58:22;95325.94;;;-9.35;53.64
59829;BME280;45708;51.848;107.620;2023-03-13T18:03:22;95298.44;;;-9.45;53.31
59829;BME280;45708;51.848;107.620;2023-03-13T18:08:23;95301.00;;;-9.45;53.10
59829;BME280;45708;51.848;107.620;2023-03-13T18:13:24;95280.63;;;-9.47;53.22
59829;BME280;45708;51.848;107.620;2023-03-13T18:18:25;95194.78;;;-10.06;54.11
59829;BME280;45708;51.848;107.620;2023-03-13T18:23:26;95226.53;;;-9.96;53.41
59829;BME280;45708;51.848;107.620;2023-03-13T18:28:27;95307.50;;;-9.54;54.00
59829;BME280;45708;51.848;107.620;2023-03-13T18:33:28;95319.91;;;-9.62;54.06
59829;BME280;45708;51.848;107.620;2023-03-13T18:38:28;95327.41;;;-9.59;54.30
59829;BME280;45708;51.848;107.620;2023-03-13T18:43:29;95290.88;;;-9.75;55.13
59829;BME280;45708;51.848;107.620;2023-03-13T18:48:30;95324.84;;;-9.59;54.53
59829;BME280;45708;51.848;107.620;2023-03-13T18:53:31;95304.66;;;-9.49;54.32
59829;BME280;45708;51.848;107.620;2023-03-13T18:58:31;95257.19;;;-9.82;55.31
59829;BME280;45708;51.848;107.620;2023-03-13T19:03:32;95272.50;;;-9.82;55.03
59829;BME280;45708;51.848;107.620;2023-03-13T19:08:33;95320.81;;;-9.49;55.35
59829;BME280;45708;51.848;107.620;2023-03-13T19:13:34;95329.03;;;-9.44;54.58
59829;BME280;45708;51.848;107.620;2023-03-13T19:18:35;95324.09;;;-9.47;54.69
59829;BME280;45708;51.848;107.620;2023-03-13T19:23:35;95234.66;;;-9.90;55.85
59829;BME280;45708;51.848;107.620;2023-03-13T19:28:36;95291.78;;;-9.62;55.11
59829;BME280;45708;51.848;107.620;2023-03-13T19:33:37;95297.81;;;-9.63;55.54
59829;BME280;45708;51.848;107.620;2023-03-13T19:38:38;95335.72;;;-9.56;55.91
59829;BME280;45708;51.848;107.620;2023-03-13T19:43:39;95328.41;;;-9.47;55.04
59829;BME280;45708;51.848;107.620;2023-03-13T19:48:41;95276.28;;;-9.88;56.02
59829;BME280;45708;51.848;107.620;2023-03-13T19:53:42;95332.69;;;-9.62;56.04
59829;BME280;45708;51.848;107.620;2023-03-13T19:58:44;95342.19;;;-9.64;55.21
59829;BME280;45708;51.848;107.620;2023-03-13T20:03:45;95346.13;;;-9.59;56.28
59829;BME280;45708;51.848;107.620;2023-03-13T20:08:47;95307.94;;;-9.90;55.49
59829;BME280;45708;51.848;107.620;2023-03-13T20:13:48;95287.75;;;-10.23;55.66
59829;BME280;45708;51.848;107.620;2023-03-13T20:18:49;95269.22;;;-10.13;56.63
59829;BME280;45708;51.848;107.620;2023-03-13T20:23:50;95316.72;;;-9.80;55.84
59829;BME280;45708;51.848;107.620;2023-03-13T20:28:52;95331.75;;;-9.61;56.16
59829;BME280;45708;51.848;107.620;2023-03-13T20:33:54;95299.63;;;-9.94;55.99
59829;BME280;45708;51.848;107.620;2023-03-13T20:38:56;95270.59;;;-10.35;55.75
59829;BME280;45708;51.848;107.620;2023-03-13T20:43:57;95266.19;;;-10.48;56.26
59829;BME280;45708;51.848;107.620;2023-03-13T20:48:58;95342.88;;;-10.05;56.41
59829;BME280;45708;51.848;107.620;2023-03-13T20:53:59;95347.09;;;-9.90;56.37
59829;BME280;45708;51.848;107.620;2023-03-13T20:59:00;95262.00;;;-10.49;56.55
59829;BME280;45708;51.848;107.620;2023-03-13T21:04:01;95275.31;;;-10.44;56.71
59829;BME280;45708;51.848;107.620;2023-03-13T21:09:01;95289.91;;;-10.46;56.56
59829;BME280;45708;51.848;107.620;2023-03-13T21:14:02;95330.63;;;-10.14;56.42
59829;BME280;45708;51.848;107.620;2023-03-13T21:19:03;95325.16;;;-10.22;57.18
59829;BME280;45708;51.848;107.620;2023-03-13T21:24:04;95360.03;;;-10.07;56.23
59829;BME280;45708;51.848;107.620;2023-03-13T21:29:05;95342.41;;;-10.12;57.00
59829;BME280;45708;51.848;107.620;2023-03-13T21:34:06;95340.66;;;-10.25;56.95
59829;BME280;45708;51.848;107.620;2023-03-13T21:39:07;95351.75;;;-10.40;56.38
59829;BME280;45708;51.848;107.620;2023-03-13T21:44:08;95344.97;;;-10.56;56.75
59829;BME280;45708;51.848;107.620;2023-03-13T21:49:08;95313.16;;;-10.80;56.90
59829;BME280;45708;51.848;107.620;2023-03-13T21:54:09;95285.41;;;-11.02;58.24
59829;BME280;45708;51.848;107.620;2023-03-13T21:59:10;95329.28;;;-10.80;57.80
59829;BME280;45708;51.848;107.620;2023-03-13T22:04:11;95357.56;;;-10.68;58.70
59829;BME280;45708;51.848;107.620;2023-03-13T22:09:12;95383.56;;;-10.62;58.36
59829;BME280;45708;51.848;107.620;2023-03-13T22:14:13;95298.84;;;-11.30;58.65
59829;BME280;45708;51.848;107.620;2023-03-13T22:19:14;95340.81;;;-11.20;59.24
59829;BME280;45708;51.848;107.620;2023-03-13T22:24:15;95306.56;;;-11.47;58.94
59829;BME280;45708;51.848;107.620;2023-03-13T22:29:16;95304.25;;;-11.68;59.15
59829;BME280;45708;51.848;107.620;2023-03-13T22:34:17;95308.19;;;-11.78;59.37
59829;BME280;45708;51.848;107.620;2023-03-13T22:39:21;95365.78;;;-11.42;59.30
59829;BME280;45708;51.848;107.620;2023-03-13T22:44:22;95402.25;;;-11.09;59.22
59829;BME280;45708;51.848;107.620;2023-03-13T22:49:24;95423.53;;;-10.77;60.38
59829;BME280;45708;51.848;107.620;2023-03-13T22:54:25;95383.25;;;-10.87;58.81
59829;BME280;45708;51.848;107.620;2023-03-13T22:59:27;95367.47;;;-10.78;58.93
59829;BME280;45708;51.848;107.620;2023-03-13T23:04:28;95391.47;;;-10.51;59.34
59829;BME280;45708;51.848;107.620;2023-03-13T23:09:29;95415.28;;;-10.20;60.65
59829;BME280;45708;51.848;107.620;2023-03-13T23:14:30;95391.84;;;-10.13;59.81
59829;BME280;45708;51.848;107.620;2023-03-13T23:19:34;95378.16;;;-10.12;59.49
59829;BME280;45708;51.848;107.620;2023-03-13T23:24:35;95402.41;;;-9.89;59.85
59829;BME280;45708;51.848;107.620;2023-03-13T23:29:36;95409.72;;;-9.83;59.83
59829;BME280;45708;51.848;107.620;2023-03-13T23:34:38;95388.91;;;-9.91;59.87
59829;BME280;45708;51.848;107.620;2023-03-13T23:39:38;95402.63;;;-9.63;59.85
59829;BME280;45708;51.848;107.620;2023-03-13T23:44:39;95391.34;;;-9.59;59.77
59829;BME280;45708;51.848;107.620;2023-03-13T23:49:40;95317.06;;;-9.86;60.31
59829;BME280;45708;51.848;107.620;2023-03-13T23:54:41;95355.16;;;-9.39;60.44
59829;BME280;45708;51.848;107.620;2023-03-13T23:59:42;95362.09;;;-9.27;59.84
